Terminal Aerodrome Forecast
Issued by NWS

Current Version | Previous Version | Graphics & Text | Print | Product List | Glossary On
Versions: 1 2 3 4 5 6 7 8 9 10 11 12 13 14 15 16 17 18
000
FTUS41 KPBZ 271735
TAFHLG
TAF
KHLG 271735Z 2718/2818 02005KT P6SM BKN035
     FM272100 01005KT P6SM SCT050
     FM280800 00000KT 3SM BR SKC
     FM281000 00000KT 2SM BR SKC
     FM281300 10005KT P6SM SCT035=

USA.gov is the U.S. government's official web portal to all federal, state and local government web resources and services.